sensor_id;sensor_type;location;lat;lon;timestamp;pressure;altitude;pressure_sealevel;temperature;humidity
55460;BME280;41326;45.302;-122.946;2023-02-21T00:00:30;101527.57;;;17.00;59.99
55460;BME280;41326;45.302;-122.946;2023-02-21T00:03:01;101545.85;;;17.01;59.92
55460;BME280;41326;45.302;-122.946;2023-02-21T00:05:31;101558.63;;;17.02;59.99
55460;BME280;41326;45.302;-122.946;2023-02-21T00:08:02;101568.24;;;17.04;60.03
55460;BME280;41326;45.302;-122.946;2023-02-21T00:10:33;101569.43;;;17.02;60.24
55460;BME280;41326;45.302;-122.946;2023-02-21T00:13:03;101556.51;;;17.00;60.28
55460;BME280;41326;45.302;-122.946;2023-02-21T00:15:33;101540.19;;;16.99;60.31
55460;BME280;41326;45.302;-122.946;2023-02-21T00:18:03;101516.84;;;16.99;60.44
55460;BME280;41326;45.302;-122.946;2023-02-21T00:20:33;101505.18;;;16.95;60.33
55460;BME280;41326;45.302;-122.946;2023-02-21T00:23:04;101502.57;;;16.97;60.22
55460;BME280;41326;45.302;-122.946;2023-02-21T00:25:34;101501.20;;;16.95;60.37
55460;BME280;41326;45.302;-122.946;2023-02-21T00:28:05;101508.79;;;16.97;60.41
55460;BME280;41326;45.302;-122.946;2023-02-21T00:30:35;101501.91;;;16.97;60.49
55460;BME280;41326;45.302;-122.946;2023-02-21T00:33:05;101485.49;;;16.96;60.60
55460;BME280;41326;45.302;-122.946;2023-02-21T00:35:35;101469.22;;;16.97;60.59
55460;BME280;41326;45.302;-122.946;2023-02-21T00:38:05;101477.41;;;16.97;60.58
55460;BME280;41326;45.302;-122.946;2023-02-21T00:40:35;101473.77;;;16.93;60.63
55460;BME280;41326;45.302;-122.946;2023-02-21T00:43:06;101462.82;;;17.08;60.16
55460;BME280;41326;45.302;-122.946;2023-02-21T00:45:36;101456.17;;;17.20;59.88
55460;BME280;41326;45.302;-122.946;2023-02-21T00:48:06;101456.90;;;17.34;59.48
55460;BME280;41326;45.302;-122.946;2023-02-21T00:50:36;101454.93;;;17.56;58.87
55460;BME280;41326;45.302;-122.946;2023-02-21T00:53:07;101462.33;;;17.68;58.56
55460;BME280;41326;45.302;-122.946;2023-02-21T00:55:37;101451.56;;;17.70;58.46
55460;BME280;41326;45.302;-122.946;2023-02-21T00:58:08;101471.05;;;17.63;58.69
55460;BME280;41326;45.302;-122.946;2023-02-21T01:00:38;101480.71;;;17.70;58.53
55460;BME280;41326;45.302;-122.946;2023-02-21T01:03:09;101470.00;;;17.80;58.30
55460;BME280;41326;45.302;-122.946;2023-02-21T01:05:38;101468.91;;;17.95;58.11
55460;BME280;41326;45.302;-122.946;2023-02-21T01:08:09;101464.11;;;18.09;57.70
55460;BME280;41326;45.302;-122.946;2023-02-21T01:10:39;101451.10;;;18.19;57.50
55460;BME280;41326;45.302;-122.946;2023-02-21T01:13:10;101439.35;;;18.18;57.55
55460;BME280;41326;45.302;-122.946;2023-02-21T01:15:40;101415.48;;;18.13;57.82
55460;BME280;41326;45.302;-122.946;2023-02-21T01:18:10;101401.15;;;18.11;57.92
55460;BME280;41326;45.302;-122.946;2023-02-21T01:20:40;101387.83;;;18.15;57.97
55460;BME280;41326;45.302;-122.946;2023-02-21T01:23:10;101387.82;;;18.22;58.01
55460;BME280;41326;45.302;-122.946;2023-02-21T01:25:41;101395.35;;;18.37;57.65
55460;BME280;41326;45.302;-122.946;2023-02-21T01:28:11;101372.61;;;18.38;57.71
55460;BME280;41326;45.302;-122.946;2023-02-21T01:30:42;101398.32;;;18.35;57.83
55460;BME280;41326;45.302;-122.946;2023-02-21T01:33:11;101392.41;;;18.28;58.05
55460;BME280;41326;45.302;-122.946;2023-02-21T01:35:42;101401.39;;;18.23;58.23
55460;BME280;41326;45.302;-122.946;2023-02-21T01:38:12;101407.62;;;18.33;57.86
55460;BME280;41326;45.302;-122.946;2023-02-21T01:40:43;101407.18;;;18.44;57.90
55460;BME280;41326;45.302;-122.946;2023-02-21T01:43:19;101400.94;;;18.45;58.00
55460;BME280;41326;45.302;-122.946;2023-02-21T01:45:48;101398.25;;;18.42;58.24
55460;BME280;41326;45.302;-122.946;2023-02-21T01:48:16;101385.08;;;18.36;58.34
55460;BME280;41326;45.302;-122.946;2023-02-21T01:50:43;101365.92;;;18.28;58.73
55460;BME280;41326;45.302;-122.946;2023-02-21T01:53:15;101342.08;;;18.29;58.51
55460;BME280;41326;45.302;-122.946;2023-02-21T01:55:44;101312.37;;;18.38;58.20
55460;BME280;41326;45.302;-122.946;2023-02-21T01:58:14;101312.95;;;18.45;58.01
55460;BME280;41326;45.302;-122.946;2023-02-21T02:00:44;101322.91;;;18.50;57.79
55460;BME280;41326;45.302;-122.946;2023-02-21T02:03:18;101318.77;;;18.51;57.48
55460;BME280;41326;45.302;-122.946;2023-02-21T02:05:47;101321.31;;;18.50;57.56
55460;BME280;41326;45.302;-122.946;2023-02-21T02:08:15;101318.26;;;18.42;57.75
55460;BME280;41326;45.302;-122.946;2023-02-21T02:10:47;101304.35;;;18.38;57.86
55460;BME280;41326;45.302;-122.946;2023-02-21T02:13:25;101288.60;;;18.31;57.96
55460;BME280;41326;45.302;-122.946;2023-02-21T02:15:54;101281.78;;;18.31;57.81
55460;BME280;41326;45.302;-122.946;2023-02-21T02:20:58;101290.93;;;18.49;57.49
55460;BME280;41326;45.302;-122.946;2023-02-21T02:26:04;101282.06;;;18.48;57.53
55460;BME280;41326;45.302;-122.946;2023-02-21T02:28:26;101282.44;;;18.48;57.55
55460;BME280;41326;45.302;-122.946;2023-02-21T02:35:52;101269.68;;;18.28;58.16
55460;BME280;41326;45.302;-122.946;2023-02-21T02:38:23;101254.06;;;18.25;58.13
55460;BME280;41326;45.302;-122.946;2023-02-21T02:40:54;101264.81;;;18.26;58.12
55460;BME280;41326;45.302;-122.946;2023-02-21T02:43:24;101258.05;;;18.26;58.06
55460;BME280;41326;45.302;-122.946;2023-02-21T02:45:52;101239.55;;;18.18;58.30
55460;BME280;41326;45.302;-122.946;2023-02-21T02:48:22;101235.69;;;18.22;58.17
55460;BME280;41326;45.302;-122.946;2023-02-21T02:50:51;101228.81;;;18.15;58.36
55460;BME280;41326;45.302;-122.946;2023-02-21T02:53:24;101236.82;;;18.23;58.04
55460;BME280;41326;45.302;-122.946;2023-02-21T02:55:55;101229.33;;;18.34;57.78
55460;BME280;41326;45.302;-122.946;2023-02-21T02:58:21;101222.44;;;18.46;57.52
55460;BME280;41326;45.302;-122.946;2023-02-21T03:00:56;101212.05;;;18.54;57.28
55460;BME280;41326;45.302;-122.946;2023-02-21T03:03:37;101195.73;;;18.50;57.44
55460;BME280;41326;45.302;-122.946;2023-02-21T03:06:04;101180.24;;;18.46;57.64
55460;BME280;41326;45.302;-122.946;2023-02-21T03:08:28;101179.68;;;18.41;57.83
55460;BME280;41326;45.302;-122.946;2023-02-21T03:10:57;101174.98;;;18.39;57.97
55460;BME280;41326;45.302;-122.946;2023-02-21T03:13:29;101172.15;;;18.33;58.19
55460;BME280;41326;45.302;-122.946;2023-02-21T03:16:00;101163.84;;;18.28;58.31
55460;BME280;41326;45.302;-122.946;2023-02-21T03:18:29;101152.01;;;18.26;58.25
55460;BME280;41326;45.302;-122.946;2023-02-21T03:20:58;101147.89;;;18.24;58.24
55460;BME280;41326;45.302;-122.946;2023-02-21T03:23:27;101146.01;;;18.24;58.16
55460;BME280;41326;45.302;-122.946;2023-02-21T03:25:57;101144.21;;;18.23;58.19
55460;BME280;41326;45.302;-122.946;2023-02-21T03:28:25;101143.25;;;18.17;58.37
55460;BME280;41326;45.302;-122.946;2023-02-21T03:30:58;101149.47;;;18.17;58.40
55460;BME280;41326;45.302;-122.946;2023-02-21T03:33:25;101146.02;;;18.13;58.51
55460;BME280;41326;45.302;-122.946;2023-02-21T03:35:58;101163.57;;;18.10;58.65
55460;BME280;41326;45.302;-122.946;2023-02-21T03:38:26;101172.15;;;18.08;58.67
55460;BME280;41326;45.302;-122.946;2023-02-21T03:40:55;101188.82;;;18.09;58.50
55460;BME280;41326;45.302;-122.946;2023-02-21T03:43:26;101181.55;;;18.07;58.57
55460;BME280;41326;45.302;-122.946;2023-02-21T03:45:56;101190.87;;;18.04;58.64
55460;BME280;41326;45.302;-122.946;2023-02-21T03:48:26;101185.20;;;18.05;58.74
55460;BME280;41326;45.302;-122.946;2023-02-21T03:50:56;101196.14;;;18.11;58.45
55460;BME280;41326;45.302;-122.946;2023-02-21T03:53:27;101185.75;;;18.18;58.29
55460;BME280;41326;45.302;-122.946;2023-02-21T03:55:57;101169.39;;;18.30;57.96
55460;BME280;41326;45.302;-122.946;2023-02-21T03:58:28;101143.25;;;18.34;57.81
55460;BME280;41326;45.302;-122.946;2023-02-21T04:00:58;101140.97;;;18.35;57.71
55460;BME280;41326;45.302;-122.946;2023-02-21T04:03:28;101126.61;;;18.32;57.81
55460;BME280;41326;45.302;-122.946;2023-02-21T04:05:58;101119.61;;;18.33;57.73
55460;BME280;41326;45.302;-122.946;2023-02-21T04:08:29;101111.17;;;18.28;57.90
55460;BME280;41326;45.302;-122.946;2023-02-21T04:10:59;101107.35;;;18.26;57.95
55460;BME280;41326;45.302;-122.946;2023-02-21T04:13:30;101098.73;;;18.20;58.15
55460;BME280;41326;45.302;-122.946;2023-02-21T04:16:00;101086.75;;;18.20;58.14
55460;BME280;41326;45.302;-122.946;2023-02-21T04:18:30;101071.63;;;18.19;58.11
55460;BME280;41326;45.302;-122.946;2023-02-21T04:21:01;101075.34;;;18.18;58.08
55460;BME280;41326;45.302;-122.946;2023-02-21T04:23:31;101064.04;;;18.15;58.13
55460;BME280;41326;45.302;-122.946;2023-02-21T04:26:02;101057.96;;;18.24;57.89
55460;BME280;41326;45.302;-122.946;2023-02-21T04:28:32;101039.17;;;18.38;57.52
55460;BME280;41326;45.302;-122.946;2023-02-21T04:31:02;101020.13;;;18.51;57.12
55460;BME280;41326;45.302;-122.946;2023-02-21T04:33:32;101038.07;;;18.51;57.45
55460;BME280;41326;45.302;-122.946;2023-02-21T04:36:03;101038.49;;;18.46;58.27
55460;BME280;41326;45.302;-122.946;2023-02-21T04:38:33;101034.15;;;18.42;59.05
55460;BME280;41326;45.302;-122.946;2023-02-21T04:41:04;101040.69;;;18.44;60.00
55460;BME280;41326;45.302;-122.946;2023-02-21T04:43:33;101043.24;;;18.47;60.22
55460;BME280;41326;45.302;-122.946;2023-02-21T04:46:04;101037.67;;;18.42;60.60
55460;BME280;41326;45.302;-122.946;2023-02-21T04:48:34;101038.51;;;18.41;60.52
55460;BME280;41326;45.302;-122.946;2023-02-21T04:51:04;101041.80;;;18.37;60.55
55460;BME280;41326;45.302;-122.946;2023-02-21T04:53:34;101028.08;;;18.38;60.47
55460;BME280;41326;45.302;-122.946;2023-02-21T04:56:05;101000.15;;;18.39;60.20
55460;BME280;41326;45.302;-122.946;2023-02-21T04:58:35;101004.99;;;18.36;60.26
55460;BME280;41326;45.302;-122.946;2023-02-21T05:01:05;101015.64;;;18.33;60.06
55460;BME280;41326;45.302;-122.946;2023-02-21T05:03:35;101011.52;;;18.35;59.79
55460;BME280;41326;45.302;-122.946;2023-02-21T05:06:06;101014.69;;;18.30;60.14
55460;BME280;41326;45.302;-122.946;2023-02-21T05:08:36;101025.44;;;18.32;60.19
55460;BME280;41326;45.302;-122.946;2023-02-21T05:11:06;101015.99;;;18.32;60.17
55460;BME280;41326;45.302;-122.946;2023-02-21T05:13:36;101010.35;;;18.32;60.01
55460;BME280;41326;45.302;-122.946;2023-02-21T05:16:07;100998.68;;;18.31;60.06
55460;BME280;41326;45.302;-122.946;2023-02-21T05:18:37;100986.98;;;18.30;60.09
55460;BME280;41326;45.302;-122.946;2023-02-21T05:21:07;100969.52;;;18.33;59.78
55460;BME280;41326;45.302;-122.946;2023-02-21T05:23:38;100954.14;;;18.31;59.51
55460;BME280;41326;45.302;-122.946;2023-02-21T05:26:09;100955.34;;;18.26;59.55
55460;BME280;41326;45.302;-122.946;2023-02-21T05:28:38;100981.40;;;18.22;59.51
55460;BME280;41326;45.302;-122.946;2023-02-21T05:31:09;100962.82;;;18.21;59.49
55460;BME280;41326;45.302;-122.946;2023-02-21T05:33:39;100930.31;;;18.19;59.45
55460;BME280;41326;45.302;-122.946;2023-02-21T05:36:10;100918.16;;;18.17;59.48
55460;BME280;41326;45.302;-122.946;2023-02-21T05:38:44;100903.46;;;18.14;59.39
55460;BME280;41326;45.302;-122.946;2023-02-21T05:41:12;100905.55;;;18.13;59.38
55460;BME280;41326;45.302;-122.946;2023-02-21T05:43:42;100906.86;;;18.10;59.34
55460;BME280;41326;45.302;-122.946;2023-02-21T05:48:41;100911.84;;;18.08;59.29
55460;BME280;41326;45.302;-122.946;2023-02-21T05:51:11;100916.02;;;18.06;59.38
55460;BME280;41326;45.302;-122.946;2023-02-21T05:53:41;100907.64;;;18.05;59.37
55460;BME280;41326;45.302;-122.946;2023-02-21T05:56:13;100917.15;;;18.01;59.48
55460;BME280;41326;45.302;-122.946;2023-02-21T05:58:42;100914.24;;;18.04;59.17
55460;BME280;41326;45.302;-122.946;2023-02-21T06:01:12;100923.43;;;18.03;59.13
55460;BME280;41326;45.302;-122.946;2023-02-21T06:03:42;100897.11;;;18.02;59.12
55460;BME280;41326;45.302;-122.946;2023-02-21T06:06:13;100885.82;;;17.97;59.28
55460;BME280;41326;45.302;-122.946;2023-02-21T06:08:47;100867.71;;;17.98;59.22
55460;BME280;41326;45.302;-122.946;2023-02-21T06:11:14;100880.84;;;17.96;59.21
55460;BME280;41326;45.302;-122.946;2023-02-21T06:13:44;100881.51;;;17.95;59.18
55460;BME280;41326;45.302;-122.946;2023-02-21T06:16:14;100880.52;;;17.95;59.13
55460;BME280;41326;45.302;-122.946;2023-02-21T06:18:44;100848.44;;;17.91;59.11
55460;BME280;41326;45.302;-122.946;2023-02-21T06:21:14;100843.07;;;17.90;59.02
55460;BME280;41326;45.302;-122.946;2023-02-21T06:23:45;100844.03;;;17.92;58.89
55460;BME280;41326;45.302;-122.946;2023-02-21T06:26:16;100828.79;;;17.92;58.93
55460;BME280;41326;45.302;-122.946;2023-02-21T06:28:45;100820.84;;;17.87;59.05
55460;BME280;41326;45.302;-122.946;2023-02-21T06:31:16;100820.39;;;17.85;59.12
55460;BME280;41326;45.302;-122.946;2023-02-21T06:33:47;100817.08;;;17.84;59.13
55460;BME280;41326;45.302;-122.946;2023-02-21T06:36:19;100815.86;;;17.81;59.24
55460;BME280;41326;45.302;-122.946;2023-02-21T06:38:49;100826.27;;;17.82;59.27
55460;BME280;41326;45.302;-122.946;2023-02-21T06:41:22;100824.55;;;17.80;59.20
55460;BME280;41326;45.302;-122.946;2023-02-21T06:43:47;100819.77;;;17.80;59.14
55460;BME280;41326;45.302;-122.946;2023-02-21T06:46:22;100820.97;;;17.76;59.26
55460;BME280;41326;45.302;-122.946;2023-02-21T06:48:48;100801.06;;;17.73;59.40
55460;BME280;41326;45.302;-122.946;2023-02-21T06:51:19;100792.46;;;17.75;59.34
55460;BME280;41326;45.302;-122.946;2023-02-21T06:53:50;100794.59;;;17.72;59.46
55460;BME280;41326;45.302;-122.946;2023-02-21T06:56:20;100784.12;;;17.72;59.46
55460;BME280;41326;45.302;-122.946;2023-02-21T06:58:50;100774.35;;;17.69;59.51
55460;BME280;41326;45.302;-122.946;2023-02-21T07:01:21;100771.96;;;17.68;59.51
55460;BME280;41326;45.302;-122.946;2023-02-21T07:03:51;100761.77;;;17.65;59.63
55460;BME280;41326;45.302;-122.946;2023-02-21T07:06:21;100754.42;;;17.66;59.69
55460;BME280;41326;45.302;-122.946;2023-02-21T07:08:52;100739.36;;;17.65;59.74
55460;BME280;41326;45.302;-122.946;2023-02-21T07:11:24;100735.44;;;17.63;59.83
55460;BME280;41326;45.302;-122.946;2023-02-21T07:13:55;100729.82;;;17.61;59.92
55460;BME280;41326;45.302;-122.946;2023-02-21T07:16:23;100720.56;;;17.61;59.96
55460;BME280;41326;45.302;-122.946;2023-02-21T07:18:53;100710.57;;;17.58;59.95
55460;BME280;41326;45.302;-122.946;2023-02-21T07:21:25;100708.13;;;17.59;59.86
55460;BME280;41326;45.302;-122.946;2023-02-21T07:23:54;100705.40;;;17.59;59.91
55460;BME280;41326;45.302;-122.946;2023-02-21T07:26:24;100703.21;;;17.55;60.12
55460;BME280;41326;45.302;-122.946;2023-02-21T07:28:55;100701.69;;;17.52;60.25
55460;BME280;41326;45.302;-122.946;2023-02-21T07:31:25;100710.36;;;17.52;60.25
55460;BME280;41326;45.302;-122.946;2023-02-21T07:33:55;100711.13;;;17.49;60.40
55460;BME280;41326;45.302;-122.946;2023-02-21T07:36:26;100708.31;;;17.51;60.33
55460;BME280;41326;45.302;-122.946;2023-02-21T07:38:56;100713.65;;;17.48;60.36
55460;BME280;41326;45.302;-122.946;2023-02-21T07:41:26;100723.80;;;17.46;60.46
55460;BME280;41326;45.302;-122.946;2023-02-21T07:43:56;100726.45;;;17.49;60.42
55460;BME280;41326;45.302;-122.946;2023-02-21T07:46:30;100733.42;;;17.46;60.61
55460;BME280;41326;45.302;-122.946;2023-02-21T07:48:57;100741.04;;;17.42;60.81
55460;BME280;41326;45.302;-122.946;2023-02-21T07:52:36;100742.48;;;17.40;60.85
55460;BME280;41326;45.302;-122.946;2023-02-21T07:55:06;100742.81;;;17.39;60.90
55460;BME280;41326;45.302;-122.946;2023-02-21T07:57:36;100744.04;;;17.41;60.83
55460;BME280;41326;45.302;-122.946;2023-02-21T08:00:07;100745.08;;;17.37;60.89
55460;BME280;41326;45.302;-122.946;2023-02-21T08:02:37;100744.36;;;17.37;61.15
55460;BME280;41326;45.302;-122.946;2023-02-21T08:05:09;100733.41;;;17.37;61.28
55460;BME280;41326;45.302;-122.946;2023-02-21T08:07:38;100729.87;;;17.37;61.40
55460;BME280;41326;45.302;-122.946;2023-02-21T08:10:08;100734.31;;;17.35;61.48
55460;BME280;41326;45.302;-122.946;2023-02-21T08:12:39;100738.75;;;17.37;61.51
55460;BME280;41326;45.302;-122.946;2023-02-21T08:15:09;100739.29;;;17.35;61.57
55460;BME280;41326;45.302;-122.946;2023-02-21T08:17:41;100738.19;;;17.30;61.78
55460;BME280;41326;45.302;-122.946;2023-02-21T08:20:11;100730.10;;;17.35;61.55
55460;BME280;41326;45.302;-122.946;2023-02-21T08:22:41;100736.73;;;17.36;61.61
55460;BME280;41326;45.302;-122.946;2023-02-21T08:25:13;100730.73;;;17.29;62.01
55460;BME280;41326;45.302;-122.946;2023-02-21T08:27:44;100730.28;;;17.29;61.99
55460;BME280;41326;45.302;-122.946;2023-02-21T08:30:14;100735.68;;;17.27;62.24
55460;BME280;41326;45.302;-122.946;2023-02-21T08:32:43;100728.04;;;17.28;62.20
55460;BME280;41326;45.302;-122.946;2023-02-21T08:35:13;100725.49;;;17.28;62.21
55460;BME280;41326;45.302;-122.946;2023-02-21T08:37:44;100732.51;;;17.23;62.47
55460;BME280;41326;45.302;-122.946;2023-02-21T08:40:17;100728.51;;;17.25;62.29
55460;BME280;41326;45.302;-122.946;2023-02-21T08:42:48;100735.62;;;17.26;62.23
55460;BME280;41326;45.302;-122.946;2023-02-21T08:45:20;100739.22;;;17.22;62.55
55460;BME280;41326;45.302;-122.946;2023-02-21T08:47:45;100748.10;;;17.23;62.50
55460;BME280;41326;45.302;-122.946;2023-02-21T08:50:16;100744.69;;;17.23;62.48
55460;BME280;41326;45.302;-122.946;2023-02-21T08:52:46;100735.94;;;17.24;62.56
55460;BME280;41326;45.302;-122.946;2023-02-21T08:55:16;100748.35;;;17.24;62.68
55460;BME280;41326;45.302;-122.946;2023-02-21T08:57:47;100750.95;;;17.22;62.81
55460;BME280;41326;45.302;-122.946;2023-02-21T09:00:19;100752.28;;;17.23;62.58
55460;BME280;41326;45.302;-122.946;2023-02-21T09:02:47;100756.49;;;17.21;62.75
55460;BME280;41326;45.302;-122.946;2023-02-21T09:05:19;100752.96;;;17.17;62.91
55460;BME280;41326;45.302;-122.946;2023-02-21T09:07:47;100757.12;;;17.19;62.83
55460;BME280;41326;45.302;-122.946;2023-02-21T09:10:18;100761.23;;;17.17;62.90
55460;BME280;41326;45.302;-122.946;2023-02-21T09:12:48;100765.69;;;17.16;63.00
55460;BME280;41326;45.302;-122.946;2023-02-21T09:15:19;100771.94;;;17.15;63.04
55460;BME280;41326;45.302;-122.946;2023-02-21T09:17:49;100773.32;;;17.10;63.23
55460;BME280;41326;45.302;-122.946;2023-02-21T09:20:22;100778.09;;;17.16;63.03
55460;BME280;41326;45.302;-122.946;2023-02-21T09:22:49;100777.71;;;17.10;63.45
55460;BME280;41326;45.302;-122.946;2023-02-21T09:25:21;100782.36;;;17.13;63.45
55460;BME280;41326;45.302;-122.946;2023-02-21T09:27:50;100777.87;;;17.12;63.38
55460;BME280;41326;45.302;-122.946;2023-02-21T09:30:22;100769.11;;;17.11;63.44
55460;BME280;41326;45.302;-122.946;2023-02-21T09:32:50;100773.13;;;17.06;63.57
55460;BME280;41326;45.302;-122.946;2023-02-21T09:35:21;100776.03;;;17.09;63.40
55460;BME280;41326;45.302;-122.946;2023-02-21T09:37:51;100781.82;;;17.10;63.42
55460;BME280;41326;45.302;-122.946;2023-02-21T09:40:31;100781.07;;;17.03;63.48
55460;BME280;41326;45.302;-122.946;2023-02-21T09:42:55;100772.70;;;17.04;63.51
55460;BME280;41326;45.302;-122.946;2023-02-21T09:45:27;100771.46;;;17.05;63.54
55460;BME280;41326;45.302;-122.946;2023-02-21T09:47:54;100760.78;;;17.03;63.67
55460;BME280;41326;45.302;-122.946;2023-02-21T09:50:26;100773.57;;;17.00;63.81
55460;BME280;41326;45.302;-122.946;2023-02-21T09:52:54;100772.52;;;16.98;63.91
55460;BME280;41326;45.302;-122.946;2023-02-21T09:55:28;100782.13;;;16.95;64.07
55460;BME280;41326;45.302;-122.946;2023-02-21T09:57:55;100779.58;;;16.96;64.08
55460;BME280;41326;45.302;-122.946;2023-02-21T10:00:28;100782.52;;;16.96;64.04
55460;BME280;41326;45.302;-122.946;2023-02-21T10:03:05;100786.03;;;16.95;64.07
55460;BME280;41326;45.302;-122.946;2023-02-21T10:05:35;100778.61;;;16.95;64.13
55460;BME280;41326;45.302;-122.946;2023-02-21T10:08:03;100777.39;;;16.91;64.24
55460;BME280;41326;45.302;-122.946;2023-02-21T10:10:31;100775.28;;;16.92;64.29
55460;BME280;41326;45.302;-122.946;2023-02-21T10:13:00;100776.65;;;16.92;64.23
55460;BME280;41326;45.302;-122.946;2023-02-21T10:15:38;100761.58;;;16.92;64.23
55460;BME280;41326;45.302;-122.946;2023-02-21T10:18:03;100766.95;;;16.92;64.16
55460;BME280;41326;45.302;-122.946;2023-02-21T10:20:33;100764.08;;;16.90;64.17
55460;BME280;41326;45.302;-122.946;2023-02-21T10:22:58;100764.93;;;16.93;64.02
55460;BME280;41326;45.302;-122.946;2023-02-21T10:25:30;100771.06;;;16.91;64.15
55460;BME280;41326;45.302;-122.946;2023-02-21T10:27:58;100768.15;;;16.89;64.35
55460;BME280;41326;45.302;-122.946;2023-02-21T10:30:32;100766.02;;;16.87;64.44
55460;BME280;41326;45.302;-122.946;2023-02-21T10:32:58;100759.81;;;16.82;64.63
55460;BME280;41326;45.302;-122.946;2023-02-21T10:35:28;100750.74;;;16.85;64.41
55460;BME280;41326;45.302;-122.946;2023-02-21T10:38:02;100749.88;;;16.84;64.44
55460;BME280;41326;45.302;-122.946;2023-02-21T10:40:34;100737.32;;;16.82;64.50
55460;BME280;41326;45.302;-122.946;2023-02-21T10:43:04;100733.84;;;16.80;64.69
55460;BME280;41326;45.302;-122.946;2023-02-21T10:45:36;100725.62;;;16.79;64.71
55460;BME280;41326;45.302;-122.946;2023-02-21T10:48:04;100726.39;;;16.79;64.68
55460;BME280;41326;45.302;-122.946;2023-02-21T10:50:41;100723.35;;;16.83;64.49
55460;BME280;41326;45.302;-122.946;2023-02-21T10:53:02;100712.96;;;16.77;64.52
55460;BME280;41326;45.302;-122.946;2023-02-21T10:55:33;100704.52;;;16.75;64.45
55460;BME280;41326;45.302;-122.946;2023-02-21T10:58:06;100704.18;;;16.74;64.44
55460;BME280;41326;45.302;-122.946;2023-02-21T11:00:37;100699.44;;;16.73;64.30
55460;BME280;41326;45.302;-122.946;2023-02-21T11:03:14;100702.81;;;16.75;64.17
55460;BME280;41326;45.302;-122.946;2023-02-21T11:05:34;100696.62;;;16.73;64.36
55460;BME280;41326;45.302;-122.946;2023-02-21T11:08:07;100690.33;;;16.74;64.31
55460;BME280;41326;45.302;-122.946;2023-02-21T11:10:37;100689.46;;;16.73;64.26
55460;BME280;41326;45.302;-122.946;2023-02-21T11:13:13;100701.56;;;16.70;64.29
55460;BME280;41326;45.302;-122.946;2023-02-21T11:15:35;100701.20;;;16.70;64.25
55460;BME280;41326;45.302;-122.946;2023-02-21T11:18:12;100697.22;;;16.68;64.40
55460;BME280;41326;45.302;-122.946;2023-02-21T11:20:36;100687.89;;;16.64;64.42
55460;BME280;41326;45.302;-122.946;2023-02-21T11:25:42;100676.60;;;16.61;64.52
55460;BME280;41326;45.302;-122.946;2023-02-21T11:30:47;100667.42;;;16.61;64.60
55460;BME280;41326;45.302;-122.946;2023-02-21T11:33:08;100661.70;;;16.64;64.50
55460;BME280;41326;45.302;-122.946;2023-02-21T11:35:42;100654.95;;;16.62;64.54
55460;BME280;41326;45.302;-122.946;2023-02-21T11:40:44;100639.26;;;16.61;64.33
55460;BME280;41326;45.302;-122.946;2023-02-21T11:45:43;100619.88;;;16.58;64.38
55460;BME280;41326;45.302;-122.946;2023-02-21T11:48:12;100617.79;;;16.56;64.51
55460;BME280;41326;45.302;-122.946;2023-02-21T11:50:43;100614.19;;;16.56;64.59
55460;BME280;41326;45.302;-122.946;2023-02-21T11:53:17;100612.44;;;16.57;64.53
55460;BME280;41326;45.302;-122.946;2023-02-21T11:55:40;100602.87;;;16.57;64.53
55460;BME280;41326;45.302;-122.946;2023-02-21T11:58:17;100603.43;;;16.54;64.77
55460;BME280;41326;45.302;-122.946;2023-02-21T12:00:48;100607.43;;;16.51;64.69
55460;BME280;41326;45.302;-122.946;2023-02-21T12:03:29;100613.77;;;16.50;64.67
55460;BME280;41326;45.302;-122.946;2023-02-21T12:05:52;100614.79;;;16.52;64.59
55460;BME280;41326;45.302;-122.946;2023-02-21T12:08:20;100610.02;;;16.47;64.76
55460;BME280;41326;45.302;-122.946;2023-02-21T12:10:49;100613.37;;;16.48;64.71
55460;BME280;41326;45.302;-122.946;2023-02-21T12:13:21;100608.05;;;16.48;64.80
55460;BME280;41326;45.302;-122.946;2023-02-21T12:15:52;100607.88;;;16.46;64.76
55460;BME280;41326;45.302;-122.946;2023-02-21T12:18:24;100607.39;;;16.41;64.96
55460;BME280;41326;45.302;-122.946;2023-02-21T12:20:57;100588.86;;;16.43;64.78
55460;BME280;41326;45.302;-122.946;2023-02-21T12:23:22;100589.58;;;16.39;64.85
55460;BME280;41326;45.302;-122.946;2023-02-21T12:25:54;100591.37;;;16.37;64.95
55460;BME280;41326;45.302;-122.946;2023-02-21T12:28:23;100594.38;;;16.38;64.86
55460;BME280;41326;45.302;-122.946;2023-02-21T12:31:00;100593.16;;;16.33;65.07
55460;BME280;41326;45.302;-122.946;2023-02-21T12:33:28;100582.88;;;16.33;65.06
55460;BME280;41326;45.302;-122.946;2023-02-21T12:38:22;100569.82;;;16.35;65.10
55460;BME280;41326;45.302;-122.946;2023-02-21T12:40:56;100564.67;;;16.33;65.12
55460;BME280;41326;45.302;-122.946;2023-02-21T12:43:27;100561.67;;;16.30;65.18
55460;BME280;41326;45.302;-122.946;2023-02-21T12:45:58;100557.21;;;16.32;65.15
55460;BME280;41326;45.302;-122.946;2023-02-21T12:48:25;100553.99;;;16.29;65.25
55460;BME280;41326;45.302;-122.946;2023-02-21T12:50:51;100552.29;;;16.31;65.03
55460;BME280;41326;45.302;-122.946;2023-02-21T12:53:21;100557.49;;;16.28;65.11
55460;BME280;41326;45.302;-122.946;2023-02-21T12:55:53;100553.33;;;16.25;65.16
55460;BME280;41326;45.302;-122.946;2023-02-21T12:58:26;100553.95;;;16.24;65.20
55460;BME280;41326;45.302;-122.946;2023-02-21T13:00:53;100545.42;;;16.29;64.89